Time;durP1;ratioP1;P1;durP2;ratioP2;P2;SDS_P1;SDS_P2;PMS_P1;PMS_P2;Temp;Humidity;BMP_temperature;BMP_pressure;BME280_temperature;BME280_humidity;BME280_pressure;Samples;Min_cycle;Max_cycle;Signal;HPM_P1;HPM_P2
2022/04/11 00:00:06;;;;;;;56.02;29.98;;;;;;;-0.09;94.43;98244.29;1764605;81;20998;-56
2022/04/11 00:02:33;;;;;;;55.65;30.15;;;;;;;-0.05;93.76;98244.20;1739528;81;20983;-56
2022/04/11 00:04:59;;;;;;;48.28;26.57;;;;;;;-0.01;94.54;98247.26;1746786;82;21639;-56
2022/04/11 00:07:25;;;;;;;42.58;25.52;;;;;;;0.07;93.10;98243.05;1746922;82;20862;-56
2022/04/11 00:09:51;;;;;;;49.77;28.65;;;;;;;0.07;93.70;98244.38;1746756;82;20908;-56
2022/04/11 00:12:17;;;;;;;56.50;28.50;;;;;;;0.10;93.60;98242.66;1746996;82;20886;-56
2022/04/11 00:14:43;;;;;;;50.73;28.05;;;;;;;0.14;93.78;98247.05;1746473;82;21292;-56
2022/04/11 00:17:09;;;;;;;46.68;25.27;;;;;;;0.16;94.19;98241.80;1747075;82;20877;-56
2022/04/11 00:19:35;;;;;;;42.40;21.93;;;;;;;0.21;94.10;98238.53;1748306;79;20995;-56
2022/04/11 00:22:01;;;;;;;51.40;26.95;;;;;;;0.25;93.28;98245.89;1757735;81;21444;-56
2022/04/11 00:24:27;;;;;;;44.83;21.85;;;;;;;0.28;93.66;98250.00;1756608;81;20999;-56
2022/04/11 00:26:53;;;;;;;42.03;21.52;;;;;;;0.34;93.55;98246.48;1747480;81;22160;-56
2022/04/11 00:29:19;;;;;;;40.50;23.30;;;;;;;0.36;93.55;98247.63;1739090;82;20924;-56
2022/04/11 00:31:45;;;;;;;41.50;24.15;;;;;;;0.39;92.66;98249.88;1734117;82;21437;-56
2022/04/11 00:34:11;;;;;;;45.55;23.55;;;;;;;0.39;93.90;98244.02;1743181;81;20845;-56
2022/04/11 00:36:37;;;;;;;37.67;21.02;;;;;;;0.38;94.51;98249.05;1741335;82;21053;-56
2022/04/11 00:39:03;;;;;;;42.17;21.23;;;;;;;0.43;93.37;98255.11;1737598;79;21101;-57
2022/04/11 00:41:29;;;;;;;38.38;23.35;;;;;;;0.43;92.61;98251.92;1739450;82;20878;-56
2022/04/11 00:43:55;;;;;;;43.87;24.65;;;;;;;0.46;92.39;98254.68;1746853;82;20865;-56
2022/04/11 00:46:21;;;;;;;43.55;25.05;;;;;;;0.43;91.39;98253.27;1746609;82;20928;-56
2022/04/11 00:48:47;;;;;;;45.85;27.10;;;;;;;0.43;91.67;98253.78;1749312;81;20988;-56
2022/04/11 00:51:17;;;;;;;47.33;27.42;;;;;;;0.41;92.54;98250.47;1755818;81;21416;-56
2022/04/11 00:53:44;;;;;;;50.33;25.62;;;;;;;0.41;92.84;98249.95;1741058;82;21024;-56
2022/04/11 00:56:13;;;;;;;44.05;26.55;;;;;;;0.34;93.81;98251.81;1751654;81;21047;-55
2022/04/11 00:58:39;;;;;;;44.40;25.52;;;;;;;0.35;93.94;98250.81;1750137;81;20999;-56
2022/04/11 01:01:05;;;;;;;43.10;25.15;;;;;;;0.38;93.93;98251.72;1747103;82;21048;-56
2022/04/11 01:03:32;;;;;;;39.53;20.80;;;;;;;0.43;93.32;98254.59;1747312;81;21152;-56
2022/04/11 01:05:59;;;;;;;42.35;20.88;;;;;;;0.44;92.30;98256.23;1758635;81;21031;-56
2022/04/11 01:08:25;;;;;;;36.35;22.05;;;;;;;0.43;91.66;98253.27;1739738;82;21429;-56
2022/04/11 01:10:52;;;;;;;38.20;20.30;;;;;;;0.44;92.85;98258.89;1746960;81;21042;-56
2022/04/11 01:13:18;;;;;;;37.93;20.95;;;;;;;0.48;93.40;98255.28;1746778;82;21460;-56
2022/04/11 01:15:59;;;;;;;34.40;19.77;;;;;;;0.55;92.61;98252.09;1740371;82;21157;-56
2022/04/11 01:18:25;;;;;;;35.00;21.68;;;;;;;0.52;92.00;98253.34;1754224;79;21437;-56
2022/04/11 01:20:51;;;;;;;45.78;24.75;;;;;;;0.51;92.80;98257.03;1750359;81;21039;-57
2022/04/11 01:23:17;;;;;;;45.05;21.85;;;;;;;0.55;92.80;98262.23;1753686;81;21062;-56
2022/04/11 01:25:52;;;;;;;39.55;21.10;;;;;;;0.62;92.10;98260.89;1745194;82;20973;-56
2022/04/11 01:28:19;;;;;;;37.53;20.40;;;;;;;0.63;91.81;98260.38;1738783;82;22191;-56
2022/04/11 01:30:46;;;;;;;37.83;22.48;;;;;;;0.60;91.72;98268.29;1733229;82;21467;-56
2022/04/11 01:33:23;;;;;;;38.48;22.10;;;;;;;0.58;92.12;98270.33;1738810;82;20981;-56
2022/04/11 01:35:49;;;;;;;38.98;21.20;;;;;;;0.63;92.69;98277.71;1749114;81;21148;-56
2022/04/11 01:38:15;;;;;;;38.25;20.37;;;;;;;0.62;91.92;98272.89;1750507;81;20977;-57
2022/04/11 01:40:54;;;;;;;44.67;22.58;;;;;;;0.62;92.27;98274.23;1748508;81;21440;-56
2022/04/11 01:43:20;;;;;;;38.28;20.77;;;;;;;0.59;93.08;98269.30;1753202;81;21444;-56
2022/04/11 01:45:46;;;;;;;40.43;24.27;;;;;;;0.66;91.79;98278.09;1736233;82;20999;-57
2022/04/11 01:48:12;;;;;;;39.83;22.65;;;;;;;0.71;92.71;98282.30;1746986;82;20925;-57
2022/04/11 01:50:38;;;;;;;38.42;21.33;;;;;;;0.75;93.13;98279.51;1746868;82;20960;-56
2022/04/11 01:53:09;;;;;;;43.68;22.58;;;;;;;0.79;92.02;98274.06;1746932;82;21754;-56
2022/04/11 01:55:35;;;;;;;43.50;25.15;;;;;;;0.82;91.28;98283.48;1761017;81;21464;-56
2022/04/11 01:58:03;;;;;;;50.78;26.57;;;;;;;0.76;90.77;98274.98;1737955;82;20921;-56
2022/04/11 02:00:30;;;;;;;39.63;21.48;;;;;;;0.71;92.89;98281.48;1747012;82;21012;-56
2022/04/11 02:02:56;;;;;;;40.52;20.45;;;;;;;;;;1747082;82;21171;-56
2022/04/11 02:05:21;;;;;;;39.98;22.07;;;;;;;0.67;91.09;98281.06;1736671;82;21275;-56
2022/04/11 02:07:47;;;;;;;43.48;23.12;;;;;;;0.64;91.24;98282.83;1749468;81;20999;-56
2022/04/11 02:10:13;;;;;;;40.17;22.65;;;;;;;0.61;93.85;98281.11;1734917;82;20923;-56
2022/04/11 02:12:39;;;;;;;42.08;25.32;;;;;;;0.66;92.35;98280.77;1742753;80;21027;-56
2022/04/11 02:15:08;;;;;;;47.45;24.55;;;;;;;0.67;91.47;98286.41;1747512;81;20988;-55
2022/04/11 02:17:34;;;;;;;59.20;31.77;;;;;;;0.64;93.36;98286.02;1763374;79;22001;-56
2022/04/11 02:20:00;;;;;;;47.88;26.23;;;;;;;0.68;93.90;98287.22;1762250;81;20845;-56
2022/04/11 02:22:26;;;;;;;47.43;28.27;;;;;;;0.73;92.33;98290.09;1782917;80;21004;-56
2022/04/11 02:24:51;;;;;;;44.00;24.20;;;;;;;0.74;93.34;98283.72;1788823;80;20901;-56
2022/04/11 02:27:17;;;;;;;36.33;21.20;;;;;;;0.71;93.75;98292.97;1788917;80;20858;-56
2022/04/11 02:29:43;;;;;;;40.55;23.40;;;;;;;0.72;92.17;98287.94;1744992;80;21273;-56
2022/04/11 02:32:09;;;;;;;39.80;24.10;;;;;;;0.71;93.68;98286.82;1735046;82;20880;-56
2022/04/11 02:34:35;;;;;;;46.08;23.73;;;;;;;0.73;93.06;98290.91;1744352;81;20959;-56
2022/04/11 02:37:01;;;;;;;41.95;25.30;;;;;;;0.75;92.26;98294.69;1756961;81;21381;-56
2022/04/11 02:39:27;;;;;;;42.03;23.57;;;;;;;0.77;92.19;98293.48;1754694;81;20913;-56
2022/04/11 02:41:53;;;;;;;42.00;22.90;;;;;;;0.81;92.73;98287.19;1744983;81;21752;-56
2022/04/11 02:44:18;;;;;;;40.90;22.77;;;;;;;0.85;92.83;98296.40;1742943;81;20936;-56
2022/04/11 02:46:44;;;;;;;40.17;22.80;;;;;;;0.91;92.90;98293.41;1752311;81;20888;-56
2022/04/11 02:49:11;;;;;;;37.05;21.35;;;;;;;0.92;93.42;98287.05;1759929;79;20861;-56
2022/04/11 02:51:37;;;;;;;37.17;22.32;;;;;;;0.93;93.07;98290.02;1752611;81;20985;-56
2022/04/11 02:54:07;;;;;;;40.30;22.93;;;;;;;0.95;93.33;98289.31;1752458;81;21192;-56
2022/04/11 02:56:30;;;;;;;35.88;21.27;;;;;;;0.94;94.12;98291.16;1752247;81;21469;-56
2022/04/11 02:58:56;;;;;;;42.10;24.07;;;;;;;0.98;94.08;98284.88;1752517;81;20964;-56
2022/04/11 03:01:22;;;;;;;39.23;22.37;;;;;;;1.01;93.93;98285.77;1752341;81;21445;-56
2022/04/11 03:03:49;;;;;;;49.90;26.52;;;;;;;0.97;94.31;98289.91;1752153;81;21493;-56
2022/04/11 03:06:15;;;;;;;40.75;25.27;;;;;;;1.01;94.70;98291.11;1757991;81;21148;-56
2022/04/11 03:08:41;;;;;;;40.33;23.47;;;;;;;1.05;94.32;98291.83;1760628;81;21060;-56
2022/04/11 03:11:07;;;;;;;41.33;24.37;;;;;;;1.08;93.03;98294.58;1752471;81;21425;-56
2022/04/11 03:13:33;;;;;;;38.05;20.68;;;;;;;1.08;92.80;98302.58;1745446;81;20852;-56
2022/04/11 03:15:59;;;;;;;36.68;22.15;;;;;;;1.12;92.08;98301.14;1745775;81;20979;-56
2022/04/11 03:18:25;;;;;;;64.75;29.07;;;;;;;1.10;93.28;98308.00;1759833;79;21740;-57
2022/04/11 03:20:51;;;;;;;49.88;26.75;;;;;;;1.10;93.28;98308.00;1763609;81;21110;-56
2022/04/11 03:23:17;;;;;;;44.03;23.70;;;;;;;1.15;93.38;98307.91;1763457;81;21047;-56
2022/04/11 03:25:43;;;;;;;41.25;22.55;;;;;;;1.17;92.43;98311.98;1741245;81;20935;-56
2022/04/11 03:28:08;;;;;;;38.23;21.27;;;;;;;1.16;93.37;98313.02;1752532;81;20865;-56
2022/04/11 03:30:34;;;;;;;36.48;22.00;;;;;;;1.17;94.01;98311.98;1751590;81;21695;-56
2022/04/11 03:33:00;;;;;;;40.15;21.10;;;;;;;1.21;92.63;98309.21;1752500;81;20872;-56
2022/04/11 03:35:26;;;;;;;43.87;23.27;;;;;;;1.23;92.29;98313.81;1752535;81;20880;-56
2022/04/11 03:37:52;;;;;;;112.45;42.93;;;;;;;1.24;94.01;98315.97;1730487;81;21478;-57
2022/04/11 03:40:18;;;;;;;56.30;29.37;;;;;;;1.28;94.02;98318.50;1749002;81;20964;-56
2022/04/11 03:42:44;;;;;;;54.25;28.17;;;;;;;1.33;93.18;98314.69;1752194;81;21940;-56
2022/04/11 03:45:11;;;;;;;48.13;23.12;;;;;;;1.34;92.41;98317.66;1752514;81;20925;-56
2022/04/11 03:47:38;;;;;;;30.00;17.32;;;;;;;1.38;92.88;98321.04;1752244;81;20992;-56
2022/04/11 03:50:04;;;;;;;26.27;14.83;;;;;;;1.48;92.57;98314.41;1752511;81;21465;-56
2022/04/11 03:52:30;;;;;;;16.15;10.85;;;;;;;1.60;92.42;98313.50;1753084;81;20976;-57
2022/04/11 03:54:56;;;;;;;20.12;10.30;;;;;;;1.74;92.21;98320.11;1759228;79;21202;-56
2022/04/11 03:57:22;;;;;;;25.27;17.87;;;;;;;1.88;91.97;98327.83;1765887;81;20916;-56
2022/04/11 03:59:48;;;;;;;20.75;13.32;;;;;;;2.02;91.38;98323.19;1737747;81;20904;-56
2022/04/11 04:02:14;;;;;;;20.68;11.18;;;;;;;2.13;91.13;98329.16;1738642;82;20880;-56
2022/04/11 04:04:40;;;;;;;17.73;8.73;;;;;;;2.19;89.45;98332.83;1744754;81;22352;-56
2022/04/11 04:07:06;;;;;;;17.48;10.70;;;;;;;2.28;89.03;98334.71;1752321;81;21275;-56
2022/04/11 04:09:32;;;;;;;13.95;9.98;;;;;;;2.35;88.36;98338.97;1746397;81;20892;-56
2022/04/11 04:11:57;;;;;;;12.23;9.40;;;;;;;2.43;88.26;98337.88;1757886;80;20951;-56
2022/04/11 04:14:23;;;;;;;16.67;9.68;;;;;;;2.48;88.19;98342.06;1762878;79;21481;-56
2022/04/11 04:16:49;;;;;;;16.67;9.70;;;;;;;2.53;88.59;98345.69;1752406;81;20867;-56
2022/04/11 04:19:15;;;;;;;13.00;8.58;;;;;;;2.59;88.64;98342.67;1752389;81;21550;-56
2022/04/11 04:21:41;;;;;;;11.93;7.53;;;;;;;2.59;87.26;98346.68;1729520;81;20856;-56
2022/04/11 04:24:08;;;;;;;9.45;6.35;;;;;;;2.63;87.57;98357.75;1748109;81;20929;-56
2022/04/11 04:26:34;;;;;;;10.40;6.00;;;;;;;2.66;87.55;98357.33;1752476;81;20985;-56
2022/04/11 04:29:00;;;;;;;12.15;7.47;;;;;;;2.68;87.67;98346.69;1755060;79;20900;-56
2022/04/11 04:31:26;;;;;;;13.60;6.80;;;;;;;2.71;87.17;98355.61;1737569;81;21174;-56
2022/04/11 04:33:52;;;;;;;15.75;9.90;;;;;;;2.73;86.90;98356.72;1746459;81;20991;-56
2022/04/11 04:36:18;;;;;;;10.13;7.30;;;;;;;2.75;87.06;98356.82;1752452;81;20956;-56
2022/04/11 04:38:44;;;;;;;11.45;6.67;;;;;;;2.78;87.14;98365.73;1726754;81;20943;-56
2022/04/11 04:41:10;;;;;;;12.63;7.72;;;;;;;2.81;86.70;98367.95;1752830;81;20901;-56
2022/04/11 04:43:35;;;;;;;13.78;7.67;;;;;;;2.83;86.43;98367.23;1752301;81;22212;-56
2022/04/11 04:46:01;;;;;;;12.07;7.72;;;;;;;2.81;85.40;98367.14;1752523;81;20873;-56
2022/04/11 04:48:27;;;;;;;13.53;7.58;;;;;;;2.86;86.27;98373.18;1752632;81;21023;-56
2022/04/11 04:50:54;;;;;;;13.83;9.28;;;;;;;2.85;85.63;98378.23;1752705;81;20877;-56
2022/04/11 04:53:20;;;;;;;18.35;10.40;;;;;;;2.80;85.76;98375.69;1752594;81;21032;-56
2022/04/11 04:55:46;;;;;;;19.60;10.45;;;;;;;2.78;85.76;98376.44;1752496;81;21535;-56
2022/04/11 04:58:11;;;;;;;21.80;13.68;;;;;;;2.78;85.91;98379.64;1752377;81;20995;-56
2022/04/11 05:00:37;;;;;;;34.53;20.68;;;;;;;2.74;85.42;98381.95;1752205;81;20928;-56
2022/04/11 05:03:03;;;;;;;27.60;16.77;;;;;;;2.77;85.78;98381.50;1740944;81;20896;-56
2022/04/11 05:05:29;;;;;;;21.95;13.38;;;;;;;2.79;85.72;98394.13;1746289;81;21000;-56
2022/04/11 05:07:55;;;;;;;21.70;14.10;;;;;;;2.85;85.80;98380.92;1740927;81;20908;-56
2022/04/11 05:10:21;;;;;;;19.73;13.25;;;;;;;2.88;85.71;98389.31;1752759;81;20858;-56
2022/04/11 05:12:47;;;;;;;21.87;14.13;;;;;;;2.89;85.32;98394.96;1752409;81;21062;-56
2022/04/11 05:15:14;;;;;;;31.37;17.55;;;;;;;2.92;85.28;98395.06;1751212;81;20981;-56
2022/04/11 05:17:39;;;;;;;25.08;15.43;;;;;;;2.93;85.48;98398.84;1758071;81;21071;-56
2022/04/11 05:20:07;;;;;;;26.62;14.75;;;;;;;2.97;85.33;98402.70;1741689;81;21591;-56
2022/04/11 05:22:33;;;;;;;21.07;13.70;;;;;;;2.95;84.89;98399.95;1752833;79;21430;-56
2022/04/11 05:24:59;;;;;;;25.60;14.30;;;;;;;3.03;84.89;98409.86;1759218;81;20892;-56
2022/04/11 05:27:25;;;;;;;29.05;13.32;;;;;;;3.09;85.06;98410.32;1763449;81;20881;-56
2022/04/11 05:29:51;;;;;;;34.20;20.10;;;;;;;3.20;85.17;98412.77;1755446;81;21329;-56
2022/04/11 05:32:17;;;;;;;16.97;12.50;;;;;;;3.29;84.96;98416.80;1752379;81;21722;-57
2022/04/11 05:34:43;;;;;;;19.95;11.78;;;;;;;3.36;84.79;98414.86;1752304;81;20881;-56
2022/04/11 05:37:11;;;;;;;19.73;12.63;;;;;;;3.45;84.67;98420.74;1747963;81;20901;-56
2022/04/11 05:39:37;;;;;;;24.32;13.35;;;;;;;3.50;84.55;98412.02;1781571;80;21056;-56
2022/04/11 05:42:05;;;;;;;37.53;17.57;;;;;;;3.58;84.69;98420.56;1757932;81;20881;-56
2022/04/11 05:44:30;;;;;;;39.63;19.75;;;;;;;3.69;84.43;98417.67;1768423;80;21859;-56
2022/04/11 05:46:56;;;;;;;33.13;15.88;;;;;;;3.76;83.41;98422.92;1741827;81;20881;-56
2022/04/11 05:49:23;;;;;;;13.43;9.60;;;;;;;3.86;83.85;98419.21;1755137;81;21544;-56
2022/04/11 05:51:49;;;;;;;30.32;13.53;;;;;;;3.90;82.09;98412.34;1752329;81;21361;-56
2022/04/11 05:54:15;;;;;;;12.50;7.78;;;;;;;3.98;82.31;98417.38;1720943;81;21058;-56
2022/04/11 05:56:41;;;;;;;14.75;8.15;;;;;;;3.93;79.15;98417.23;1760683;81;21432;-56
2022/04/11 05:59:08;;;;;;;24.02;13.50;;;;;;;3.90;77.61;98424.40;1752863;81;21074;-56
2022/04/11 06:01:35;;;;;;;26.17;13.05;;;;;;;3.88;77.96;98429.18;1760866;80;21029;-56
2022/04/11 06:04:01;;;;;;;11.40;7.72;;;;;;;3.99;79.41;98435.10;1739521;80;21032;-56
2022/04/11 06:06:27;;;;;;;14.58;8.23;;;;;;;4.00;77.70;98433.23;1750000;81;20979;-57
2022/04/11 06:08:53;;;;;;;14.03;8.83;;;;;;;4.06;77.83;98439.05;1755227;80;21258;-56
2022/04/11 06:11:19;;;;;;;16.93;8.45;;;;;;;4.05;78.41;98428.02;1743608;80;21598;-57
2022/04/11 06:13:45;;;;;;;15.08;7.97;;;;;;;3.88;77.13;98445.27;1758068;80;20900;-57
2022/04/11 06:16:13;;;;;;;10.13;6.10;;;;;;;3.88;77.69;98438.03;1760715;80;21047;-56
2022/04/11 06:18:39;;;;;;;12.43;6.55;;;;;;;3.90;78.40;98436.47;1758164;80;21075;-57
2022/04/11 06:21:05;;;;;;;16.40;6.65;;;;;;;3.84;76.90;98444.06;1750245;80;21139;-56
2022/04/11 06:23:30;;;;;;;10.10;6.85;;;;;;;3.90;78.11;98443.98;1751996;80;21001;-56
2022/04/11 06:25:57;;;;;;;14.90;6.72;;;;;;;3.77;76.49;98446.85;1739583;81;20896;-57
2022/04/11 06:28:23;;;;;;;9.10;6.50;;;;;;;3.78;76.59;98443.12;1754696;80;20950;-57
2022/04/11 06:30:49;;;;;;;12.37;7.40;;;;;;;3.69;76.29;98448.50;1750758;80;20865;-57
2022/04/11 06:33:15;;;;;;;12.03;6.55;;;;;;;3.81;77.02;98448.55;1738677;81;21841;-57
2022/04/11 06:35:41;;;;;;;8.63;5.83;;;;;;;3.96;77.52;98446.30;1741689;81;20842;-55
2022/04/11 06:38:07;;;;;;;13.18;6.87;;;;;;;4.11;77.82;98443.22;1742414;80;21023;-56
2022/04/11 06:40:33;;;;;;;10.60;7.00;;;;;;;4.13;76.08;98451.32;1738979;81;20877;-57
2022/04/11 06:42:59;;;;;;;12.18;6.35;;;;;;;4.16;76.78;98450.85;1733759;81;21075;-57
2022/04/11 06:45:25;;;;;;;13.38;6.58;;;;;;;4.18;76.59;98455.46;1756151;80;21201;-56
2022/04/11 06:47:51;;;;;;;15.13;6.47;;;;;;;4.26;76.34;98451.64;1737861;80;21004;-56
2022/04/11 06:50:16;;;;;;;10.63;5.72;;;;;;;4.51;76.85;98454.98;1747605;80;22286;-57
2022/04/11 06:52:42;;;;;;;13.00;6.20;;;;;;;4.48;74.61;98451.42;1750762;80;20969;-56
2022/04/11 06:55:09;;;;;;;18.67;9.25;;;;;;;4.78;73.65;98452.69;1725271;81;21059;-57
2022/04/11 06:57:35;;;;;;;20.43;10.85;;;;;;;5.22;75.51;98448.36;1718651;81;21090;-56
2022/04/11 07:00:01;;;;;;;14.00;5.83;;;;;;;6.17;75.66;98447.39;1740604;81;20893;-57
2022/04/11 07:02:27;;;;;;;9.70;5.85;;;;;;;6.61;72.93;98443.59;1715868;81;21005;-56
2022/04/11 07:04:53;;;;;;;11.73;6.70;;;;;;;6.74;69.75;98431.66;1733700;81;21092;-57
2022/04/11 07:07:23;;;;;;;14.73;6.95;;;;;;;6.94;72.73;98434.70;1756787;81;21032;-57
2022/04/11 07:09:47;;;;;;;15.48;6.15;;;;;;;6.82;72.82;98435.30;1730098;81;21721;-57
2022/04/11 07:12:13;;;;;;;11.85;5.45;;;;;;;6.52;71.47;98440.20;1728719;81;21532;-57
2022/04/11 07:14:39;;;;;;;11.60;5.78;;;;;;;6.47;72.13;98445.77;1742025;80;20917;-57
2022/04/11 07:17:05;;;;;;;9.48;4.35;;;;;;;6.69;70.91;98455.84;1738771;80;20891;-57
2022/04/11 07:19:31;;;;;;;7.78;5.15;;;;;;;6.45;63.39;98458.66;1738636;80;21433;-57
2022/04/11 07:21:57;;;;;;;10.88;5.12;;;;;;;6.06;63.74;98468.94;1743594;80;21599;-57
2022/04/11 07:24:23;;;;;;;10.23;4.15;;;;;;;6.18;63.77;98473.23;1738380;80;21577;-57
2022/04/11 07:26:49;;;;;;;9.13;5.25;;;;;;;5.63;63.87;98471.53;1738485;80;21597;-57
2022/04/11 07:29:15;;;;;;;9.75;5.42;;;;;;;5.71;65.15;98471.17;1745097;80;20852;-56
2022/04/11 07:31:41;;;;;;;13.83;5.47;;;;;;;5.48;64.26;98472.05;1745279;80;21394;-57
2022/04/11 07:34:07;;;;;;;7.75;4.33;;;;;;;5.92;65.09;98475.95;1733583;80;21072;-56
2022/04/11 07:36:33;;;;;;;9.23;5.25;;;;;;;6.02;64.19;98483.41;1742542;80;20992;-57
2022/04/11 07:38:59;;;;;;;8.53;4.33;;;;;;;6.16;63.79;98479.39;1738731;80;20968;-57
2022/04/11 07:41:26;;;;;;;6.62;3.80;;;;;;;7.30;63.89;98468.38;1745490;80;38825;-57
2022/04/11 07:43:54;;;;;;;8.55;5.12;;;;;;;7.81;61.20;98476.35;1744571;80;22530;-56
2022/04/11 07:46:19;;;;;;;9.93;5.05;;;;;;;7.23;59.87;98469.61;1743620;80;21464;-56
2022/04/11 07:48:45;;;;;;;8.78;5.00;;;;;;;6.58;60.72;98479.59;1744350;79;21254;-56
2022/04/11 07:51:11;;;;;;;11.80;5.00;;;;;;;6.47;62.48;98475.91;1740105;80;20972;-57
2022/04/11 07:53:37;;;;;;;11.10;7.15;;;;;;;6.27;63.29;98474.20;1732042;81;20876;-57
2022/04/11 07:56:03;;;;;;;13.43;6.30;;;;;;;6.47;63.89;98473.22;1739365;80;20964;-56
2022/04/11 07:58:29;;;;;;;11.28;6.25;;;;;;;7.48;64.30;98472.67;1736518;80;21095;-56
2022/04/11 08:00:55;;;;;;;7.40;5.20;;;;;;;7.53;64.22;98470.59;1738991;80;20941;-57
2022/04/11 08:03:22;;;;;;;12.30;4.42;;;;;;;7.20;59.20;98478.20;1740707;80;20948;-56
2022/04/11 08:05:48;;;;;;;10.78;5.33;;;;;;;7.40;62.19;98478.49;1736665;80;21575;-57
2022/04/11 08:08:14;;;;;;;11.08;5.45;;;;;;;8.15;62.59;98468.41;1741327;80;21001;-56
2022/04/11 08:10:40;;;;;;;8.58;5.67;;;;;;;9.72;54.40;98463.20;1746223;80;21532;-57
2022/04/11 08:13:06;;;;;;;9.08;5.42;;;;;;;11.19;51.82;98462.17;1742201;80;20943;-57
2022/04/11 08:15:32;;;;;;;10.08;4.42;;;;;;;10.88;56.77;98459.22;1731692;80;20897;-57
2022/04/11 08:17:59;;;;;;;8.50;4.25;;;;;;;10.00;47.52;98464.16;1745691;80;21003;-57
2022/04/11 08:20:25;;;;;;;6.10;3.75;;;;;;;8.93;51.76;98463.51;1735500;80;21095;-57
2022/04/11 08:22:51;;;;;;;13.03;5.72;;;;;;;8.48;52.22;98462.57;1745252;80;21988;-57
2022/04/11 08:25:17;;;;;;;7.35;3.33;;;;;;;7.85;54.01;98464.80;1743931;80;20879;-56
2022/04/11 08:27:43;;;;;;;9.28;3.85;;;;;;;7.54;54.44;98460.91;1728764;80;21524;-57
2022/04/11 08:30:12;;;;;;;8.85;3.92;;;;;;;7.69;56.27;98463.50;1735381;80;21043;-56
2022/04/11 08:32:46;;;;;;;14.93;5.78;;;;;;;8.45;55.20;98470.63;1736225;80;21108;-56
2022/04/11 08:35:12;;;;;;;10.20;3.45;;;;;;;7.35;52.24;98469.00;1728868;80;21710;-56
2022/04/11 08:37:40;;;;;;;7.35;3.98;;;;;;;7.40;55.03;98465.02;1743097;80;21058;-56
2022/04/11 08:40:15;;;;;;;14.75;6.53;;;;;;;7.40;55.03;98465.02;1744384;80;20959;-56
2022/04/11 08:42:43;;;;;;;7.03;4.05;;;;;;;7.05;54.32;98465.30;1739468;81;21512;-57
2022/04/11 08:45:10;;;;;;;5.55;3.33;;;;;;;7.39;54.38;98463.91;1730845;80;21449;-57
2022/04/11 08:47:36;;;;;;;8.05;3.40;;;;;;;9.50;49.57;98453.91;1763513;80;21110;-57
2022/04/11 08:50:03;;;;;;;5.87;3.35;;;;;;;9.69;50.58;98455.08;1752403;80;21009;-57
2022/04/11 08:52:29;;;;;;;5.62;2.92;;;;;;;8.88;46.12;98456.70;1726371;81;21144;-57
2022/04/11 08:54:56;;;;;;;8.93;3.50;;;;;;;9.78;47.61;98455.39;1724077;81;21422;-55
2022/04/11 08:57:23;;;;;;;10.10;4.00;;;;;;;10.56;44.42;98455.39;1726243;81;21077;-57
2022/04/11 08:59:49;;;;;;;10.20;3.62;;;;;;;10.60;44.89;98447.82;1739155;80;21283;-56
2022/04/11 09:02:15;;;;;;;6.37;3.10;;;;;;;12.10;42.15;98447.57;1739910;81;22463;-57
2022/04/11 09:04:56;;;;;;;5.85;2.90;;;;;;;12.63;40.83;98436.92;1736192;80;20913;-57
2022/04/11 09:07:22;;;;;;;13.85;4.67;;;;;;;13.03;39.95;98439.08;1743445;81;21048;-57
2022/04/11 09:09:48;;;;;;;7.50;3.90;;;;;;;12.33;38.38;98433.06;1745298;81;21153;-57
2022/04/11 09:12:16;;;;;;;5.37;2.85;;;;;;;13.23;38.29;98428.03;1734023;80;21884;-58
2022/04/11 09:14:42;;;;;;;4.08;2.35;;;;;;;11.32;40.01;98431.52;1741809;80;21799;-56
2022/04/11 09:17:11;;;;;;;3.87;2.80;;;;;;;9.57;43.28;98435.52;1739139;81;21004;-57
2022/04/11 09:19:38;;;;;;;4.90;2.60;;;;;;;9.20;44.75;98435.59;1717853;81;21019;-56
2022/04/11 09:22:06;;;;;;;4.50;3.05;;;;;;;9.00;46.37;98436.27;1737906;81;21101;-57
2022/04/11 09:24:32;;;;;;;7.83;4.25;;;;;;;8.51;47.45;98444.49;1737233;80;21264;-57
2022/04/11 09:26:58;;;;;;;3.77;2.12;;;;;;;8.61;48.63;98458.09;1739304;81;21572;-57
2022/04/11 09:29:26;;;;;;;5.10;2.35;;;;;;;8.34;50.05;98470.22;1731504;81;20919;-57
2022/04/11 09:31:52;;;;;;;5.83;2.02;;;;;;;7.91;51.30;98488.08;1750810;80;21021;-57
2022/04/11 09:34:24;;;;;;;2.35;1.42;;;;;;;7.37;55.47;98487.09;1754520;80;21608;-57
2022/04/11 09:36:56;;;;;;;3.75;1.70;;;;;;;7.10;54.72;98480.22;1735322;80;21113;-57
2022/04/11 09:39:33;;;;;;;3.00;2.12;;;;;;;6.71;60.87;98479.30;1732802;80;21009;-57
2022/04/11 09:41:59;;;;;;;2.37;1.87;;;;;;;6.58;56.84;98480.94;1738136;80;21117;-57
2022/04/11 09:44:30;;;;;;;4.85;2.67;;;;;;;6.06;63.90;98479.17;1749573;80;20833;-56
2022/04/11 09:46:59;;;;;;;11.40;6.58;;;;;;;6.07;64.54;98480.02;1744424;80;21108;-57
2022/04/11 09:49:26;;;;;;;8.10;3.27;;;;;;;6.43;64.74;98477.46;1748151;80;21960;-57
2022/04/11 09:52:14;;;;;;;4.03;2.58;;;;;;;6.54;64.99;98475.77;1755275;80;21064;-56
2022/04/11 09:54:43;;;;;;;6.45;3.62;;;;;;;6.58;62.59;98472.36;1759421;80;21041;-56
2022/04/11 09:57:11;;;;;;;5.37;3.42;;;;;;;6.63;63.73;98467.04;1751215;80;26711;-56
2022/04/11 09:59:37;;;;;;;7.95;3.58;;;;;;;6.77;62.24;98449.52;1754225;80;21111;-56
2022/04/11 10:02:05;;;;;;;5.78;3.55;;;;;;;6.84;62.68;98452.05;1743785;80;21063;-56
2022/04/11 10:04:31;;;;;;;6.75;3.58;;;;;;;6.87;62.75;98446.70;1740286;81;21048;-56
2022/04/11 10:06:57;;;;;;;5.20;3.30;;;;;;;7.13;64.34;98447.91;1762680;80;20956;-56
2022/04/11 10:09:23;;;;;;;5.78;3.22;;;;;;;7.66;62.33;98449.99;1730918;81;21375;-57
2022/04/11 10:11:53;;;;;;;7.15;3.62;;;;;;;8.03;61.17;98456.09;1733312;80;21060;-57
2022/04/11 10:14:23;;;;;;;11.20;3.92;;;;;;;8.15;61.15;98460.84;1754304;80;22392;-57
2022/04/11 10:16:55;;;;;;;8.30;3.70;;;;;;;8.29;60.60;98458.54;1758610;80;20964;-57
2022/04/11 10:19:29;;;;;;;9.65;4.28;;;;;;;8.57;60.90;98463.73;1758176;80;20990;-57
2022/04/11 10:21:59;;;;;;;8.03;4.33;;;;;;;8.85;61.18;98464.52;1754577;80;20977;-56
2022/04/11 10:24:49;;;;;;;8.95;4.33;;;;;;;9.05;59.40;98461.97;1767703;80;20978;-58
2022/04/11 10:27:25;;;;;;;51.18;26.93;;;;;;;9.11;59.20;98460.13;1735164;80;21029;-57
2022/04/11 10:29:53;;;;;;;20.88;13.30;;;;;;;9.10;58.90;98460.67;1772996;80;20974;-57
2022/04/11 10:32:26;;;;;;;13.60;8.68;;;;;;;9.09;58.75;98466.34;1758805;80;21040;-57
2022/04/11 10:35:05;;;;;;;10.08;5.08;;;;;;;8.76;59.04;98466.34;1738373;81;21375;-57
2022/04/11 10:38:00;;;;;;;13.78;6.10;;;;;;;8.52;59.29;98462.86;1742162;81;21055;-57
2022/04/11 10:40:27;;;;;;;39.70;17.42;;;;;;;8.34;59.55;98461.30;1751041;80;21449;-57
2022/04/11 10:43:08;;;;;;;288.57;121.20;;;;;;;8.26;59.31;98450.95;1743209;81;21040;-58
2022/04/11 10:45:42;;;;;;;56.48;23.12;;;;;;;8.35;59.14;98450.81;1733699;81;21105;-58
2022/04/11 10:48:10;;;;;;;170.80;68.72;;;;;;;8.36;59.34;98445.69;1735333;81;21079;-57
2022/04/11 10:50:43;;;;;;;124.58;55.38;;;;;;;8.44;58.55;98441.17;1742546;81;21081;-57
2022/04/11 10:53:27;;;;;;;50.75;24.10;;;;;;;8.38;58.24;98434.12;1739370;81;21991;-57
2022/04/11 10:56:02;;;;;;;43.70;21.10;;;;;;;8.53;58.13;98425.33;1741692;81;21084;-58
2022/04/11 10:58:51;;;;;;;29.05;15.38;;;;;;;8.60;57.50;98420.53;1739079;81;21127;-58
2022/04/11 11:01:49;;;;;;;7.60;3.50;;;;;;;8.81;54.25;98421.00;1735160;81;21052;-57
2022/04/11 11:04:19;;;;;;;7.62;3.02;;;;;;;8.84;54.26;98419.12;1649061;84;21084;-58
2022/04/11 11:06:45;;;;;;;4.50;3.10;;;;;;;8.84;54.26;98419.12;1655740;85;21164;-58
2022/04/11 11:09:17;;;;;;;5.78;2.80;;;;;;;9.03;55.25;98416.81;1684915;82;20975;-57
2022/04/11 11:11:45;;;;;;;8.60;3.85;;;;;;;8.78;50.17;98412.58;1727756;81;21107;-57
2022/04/11 11:14:42;;;;;;;7.55;3.02;;;;;;;8.23;51.00;98415.84;1744689;80;21015;-58
2022/04/11 11:17:10;;;;;;;9.20;4.75;;;;;;;8.53;52.18;98432.08;1733707;81;21005;-57
2022/04/11 11:20:02;;;;;;;10.32;5.58;;;;;;;8.63;53.43;98442.47;1746578;80;22979;-57
2022/04/11 11:22:35;;;;;;;11.22;4.70;;;;;;;8.49;52.86;98442.59;1747111;80;20971;-57
2022/04/11 11:25:16;;;;;;;4.28;3.25;;;;;;;8.43;53.33;98436.85;1693283;82;21057;-57
2022/04/11 11:27:44;;;;;;;6.30;4.53;;;;;;;8.43;53.33;98436.85;1736627;80;21024;-57
2022/04/11 11:30:11;;;;;;;4.28;2.62;;;;;;;8.79;52.34;98430.41;1716123;82;21138;-57
2022/04/11 11:32:40;;;;;;;5.72;2.77;;;;;;;8.95;52.34;98430.81;1727577;80;22015;-57